IOS weather

Bahia - Jorge Amado Airport
Ilhéus, Bahia, Brazil

Public forecast

Using degrees Celsius for public forecast. Weather courtesy of forecast.io.

Current aviation weather report (METAR) for Bahia - Jorge Amado Airport

Retrieved 2020/02/29 10:00 UTC (40 minutes ago):

SBIL 291000Z 30002KT 9999 SCT025 27/24 Q1015

Aviation forecast (TAF) for Bahia - Jorge Amado Airport

Retrieved 2020/02/29 06:57 UTC (4 hours ago):

TAF SBIL 290400Z 2906/2918 24005KT 8000 SHRA SCT025 TN26/2907Z TX32/2916Z PROB30 2911/2913 04005KT 8000 FEW025 BECMG 2916/2918 12008KT RMK PAY